createdAt,value
2018-03-03T00:00:59.590Z,13.60
2018-03-03T00:01:59.601Z,13.60
2018-03-03T00:02:59.522Z,13.60
2018-03-03T00:03:59.596Z,13.60
2018-03-03T00:04:59.512Z,14.50
2018-03-03T00:05:59.540Z,14.50
2018-03-03T00:06:59.583Z,14.50
2018-03-03T00:07:59.513Z,14.50
2018-03-03T00:08:59.588Z,14.50
2018-03-03T00:09:59.677Z,14.50
2018-03-03T00:10:59.517Z,14.50
2018-03-03T00:11:59.519Z,14.50
2018-03-03T00:12:59.594Z,14.50
2018-03-03T00:13:59.524Z,14.50
2018-03-03T00:14:59.629Z,15.40
2018-03-03T00:15:59.604Z,15.40
2018-03-03T00:16:59.513Z,15.40
2018-03-03T00:17:59.619Z,15.40
2018-03-03T00:18:59.599Z,15.40
2018-03-03T00:19:59.559Z,15.40
2018-03-03T00:20:59.633Z,15.40
2018-03-03T00:21:59.525Z,15.40
2018-03-03T00:22:59.631Z,15.40
2018-03-03T00:23:59.562Z,15.40
2018-03-03T00:24:59.599Z,16.10
2018-03-03T00:25:59.626Z,16.10
2018-03-03T00:26:59.604Z,16.10
2018-03-03T00:27:59.608Z,16.10
2018-03-03T00:28:59.584Z,16.10
2018-03-03T00:29:59.643Z,16.10
2018-03-03T00:30:59.564Z,16.10
2018-03-03T00:31:59.508Z,16.10
2018-03-03T00:32:59.677Z,16.10
2018-03-03T00:33:59.603Z,16.10
2018-03-03T00:34:59.583Z,16.10
2018-03-03T00:35:59.645Z,16.10
2018-03-03T00:36:59.609Z,16.10
2018-03-03T00:37:59.571Z,16.10
2018-03-03T00:38:59.524Z,16.10
2018-03-03T00:39:59.584Z,16.10
2018-03-03T00:40:59.587Z,16.10
2018-03-03T00:41:59.529Z,16.10
2018-03-03T00:42:59.578Z,16.10
2018-03-03T00:43:59.585Z,16.10
2018-03-03T00:44:59.536Z,15.80
2018-03-03T00:45:59.578Z,15.80
2018-03-03T00:46:59.596Z,15.80
2018-03-03T00:47:59.650Z,15.80
2018-03-03T00:48:59.622Z,15.80
2018-03-03T00:49:59.642Z,15.80
2018-03-03T00:50:59.645Z,15.80
2018-03-03T00:51:59.612Z,15.80
2018-03-03T00:52:59.613Z,15.80
2018-03-03T00:53:59.626Z,15.80
2018-03-03T00:54:59.537Z,16.70
2018-03-03T00:55:59.618Z,16.70
2018-03-03T00:56:59.538Z,16.70
2018-03-03T00:57:59.550Z,16.70
2018-03-03T00:58:59.616Z,16.70
2018-03-03T00:59:59.546Z,16.70
2018-03-03T01:00:59.619Z,16.70
2018-03-03T01:01:59.543Z,16.70
2018-03-03T01:02:59.616Z,16.70
2018-03-03T01:03:59.547Z,16.70
2018-03-03T01:04:59.623Z,16.70
2018-03-03T01:05:59.626Z,18.99
2018-03-03T01:06:59.623Z,18.99
2018-03-03T01:07:59.633Z,18.99
2018-03-03T01:08:59.601Z,18.99
2018-03-03T01:09:59.531Z,18.99
2018-03-03T01:10:59.624Z,18.99
2018-03-03T01:11:59.689Z,18.99
2018-03-03T01:12:59.668Z,18.99
2018-03-03T01:13:59.659Z,18.99
2018-03-03T01:14:59.627Z,18.99
2018-03-03T01:15:59.608Z,19.00
2018-03-03T01:16:59.578Z,19.00
2018-03-03T01:17:59.567Z,19.00
2018-03-03T01:18:59.620Z,19.00
2018-03-03T01:19:59.611Z,19.00
2018-03-03T01:20:59.579Z,19.00
2018-03-03T01:21:59.490Z,19.00
2018-03-03T01:22:59.623Z,19.00
2018-03-03T01:23:59.513Z,19.00
2018-03-03T01:24:59.625Z,19.00
2018-03-03T01:25:59.656Z,17.80
2018-03-03T01:26:59.616Z,17.80
2018-03-03T01:27:59.536Z,17.80
2018-03-03T01:28:59.602Z,17.80
2018-03-03T01:29:59.661Z,17.80
2018-03-03T01:30:59.640Z,17.80
2018-03-03T01:31:59.559Z,17.80
2018-03-03T01:32:59.611Z,17.80
2018-03-03T01:33:59.688Z,17.80
2018-03-03T01:34:59.652Z,17.80
2018-03-03T01:35:59.638Z,15.40
2018-03-03T01:36:59.571Z,15.40
2018-03-03T01:37:59.638Z,15.40
2018-03-03T01:38:59.573Z,15.40
2018-03-03T01:39:59.643Z,15.40
2018-03-03T01:40:59.570Z,15.40
2018-03-03T01:41:59.641Z,15.40
2018-03-03T01:42:59.578Z,15.40
2018-03-03T01:43:59.642Z,15.40
2018-03-03T01:44:59.575Z,15.40
2018-03-03T01:45:59.656Z,14.90
2018-03-03T01:46:59.581Z,14.90
2018-03-03T01:47:59.582Z,14.90
2018-03-03T01:48:59.663Z,14.90
2018-03-03T01:49:59.658Z,14.90
2018-03-03T01:50:59.660Z,14.90
2018-03-03T01:51:59.662Z,14.90
2018-03-03T01:52:59.671Z,14.90
2018-03-03T01:53:59.668Z,14.90
2018-03-03T01:54:59.673Z,14.90
2018-03-03T01:55:59.649Z,20.00
2018-03-03T01:56:59.575Z,20.00
2018-03-03T01:57:59.650Z,20.00
2018-03-03T01:58:59.577Z,20.00
2018-03-03T01:59:59.651Z,20.00
2018-03-03T02:00:59.579Z,20.00
2018-03-03T02:01:59.653Z,20.00
2018-03-03T02:02:59.582Z,20.00
2018-03-03T02:03:59.657Z,20.00
2018-03-03T02:04:59.582Z,20.00
2018-03-03T02:05:59.685Z,17.70
2018-03-03T02:06:59.669Z,17.70
2018-03-03T02:07:59.585Z,17.70
2018-03-03T02:08:59.662Z,17.70
2018-03-03T02:09:59.591Z,17.70
2018-03-03T02:10:59.634Z,17.70
2018-03-03T02:11:59.669Z,17.70
2018-03-03T02:12:59.666Z,17.70
2018-03-03T02:13:59.662Z,17.70
2018-03-03T02:14:59.638Z,17.70
2018-03-03T02:15:59.673Z,17.40
2018-03-03T02:16:59.677Z,17.40
2018-03-03T02:17:59.600Z,17.40
2018-03-03T02:18:59.722Z,17.40
2018-03-03T02:19:59.602Z,17.40
2018-03-03T02:20:59.603Z,17.40
2018-03-03T02:21:59.674Z,17.40
2018-03-03T02:22:59.675Z,17.40
2018-03-03T02:23:59.618Z,17.40
2018-03-03T02:24:59.606Z,17.40
2018-03-03T02:25:59.679Z,15.20
2018-03-03T02:26:59.680Z,15.20
2018-03-03T02:27:59.621Z,15.20
2018-03-03T02:28:59.607Z,15.20
2018-03-03T02:29:59.681Z,15.20
2018-03-03T02:30:59.687Z,15.20
2018-03-03T02:31:59.608Z,15.20
2018-03-03T02:32:59.684Z,15.20
2018-03-03T02:33:59.686Z,15.20
2018-03-03T02:34:59.626Z,15.20
2018-03-03T02:35:59.674Z,15.00
2018-03-03T02:36:59.613Z,15.00
2018-03-03T02:37:59.675Z,15.00
2018-03-03T02:38:59.602Z,15.00
2018-03-03T02:39:59.680Z,15.00
2018-03-03T02:40:59.607Z,15.00
2018-03-03T02:41:59.682Z,15.00
2018-03-03T02:42:59.610Z,15.00
2018-03-03T02:43:59.678Z,15.00
2018-03-03T02:44:59.681Z,15.00
2018-03-03T02:45:59.623Z,16.00
2018-03-03T02:46:59.684Z,16.00
2018-03-03T02:47:59.609Z,16.00
2018-03-03T02:48:59.680Z,16.00
2018-03-03T02:49:59.608Z,16.00
2018-03-03T02:50:59.734Z,16.00
2018-03-03T02:51:59.610Z,16.00
2018-03-03T02:52:59.687Z,16.00
2018-03-03T02:53:59.608Z,16.00
2018-03-03T02:54:59.689Z,16.00
2018-03-03T02:55:59.701Z,17.40
2018-03-03T02:56:59.698Z,17.40
2018-03-03T02:57:59.702Z,17.40
2018-03-03T02:58:59.702Z,17.40
2018-03-03T02:59:59.698Z,17.40
2018-03-03T03:00:59.665Z,17.40
2018-03-03T03:01:59.628Z,17.40
2018-03-03T03:02:59.703Z,17.40
2018-03-03T03:03:59.629Z,17.40
2018-03-03T03:04:59.713Z,17.40
2018-03-03T03:05:59.627Z,17.50
2018-03-03T03:06:59.708Z,17.50
2018-03-03T03:07:59.708Z,17.50
2018-03-03T03:08:59.690Z,17.50
2018-03-03T03:09:59.630Z,17.50
2018-03-03T03:10:59.645Z,17.50
2018-03-03T03:11:59.662Z,17.50
2018-03-03T03:12:59.709Z,17.50
2018-03-03T03:13:59.633Z,17.50
2018-03-03T03:14:59.728Z,17.50
2018-03-03T03:15:59.710Z,16.90
2018-03-03T03:16:59.635Z,16.90
2018-03-03T03:17:59.760Z,16.90
2018-03-03T03:18:59.640Z,16.90
2018-03-03T03:19:59.639Z,16.90
2018-03-03T03:20:59.696Z,16.90
2018-03-03T03:21:59.717Z,16.90
2018-03-03T03:22:59.767Z,16.90
2018-03-03T03:23:59.643Z,16.90
2018-03-03T03:24:59.712Z,16.90
2018-03-03T03:25:59.708Z,15.20
2018-03-03T03:26:59.686Z,15.20
2018-03-03T03:27:59.618Z,15.20
2018-03-03T03:28:59.687Z,15.20
2018-03-03T03:29:59.652Z,15.20
2018-03-03T03:30:59.724Z,15.20
2018-03-03T03:31:59.634Z,15.20
2018-03-03T03:32:59.675Z,15.20
2018-03-03T03:33:59.753Z,15.20
2018-03-03T03:34:59.711Z,15.20
2018-03-03T03:35:59.656Z,15.90
2018-03-03T03:36:59.719Z,15.90
2018-03-03T03:37:59.738Z,15.90
2018-03-03T03:38:59.756Z,15.90
2018-03-03T03:39:59.720Z,15.90
2018-03-03T03:40:59.754Z,15.90
2018-03-03T03:41:59.717Z,15.90
2018-03-03T03:42:59.636Z,15.90
2018-03-03T03:43:59.659Z,15.90
2018-03-03T03:44:59.703Z,15.90
2018-03-03T03:45:59.685Z,17.20
2018-03-03T03:46:59.672Z,17.20
2018-03-03T03:47:59.786Z,17.20
2018-03-03T03:48:59.661Z,17.20
2018-03-03T03:49:59.694Z,17.20
2018-03-03T03:50:59.755Z,17.20
2018-03-03T03:51:59.701Z,17.20
2018-03-03T03:52:59.736Z,17.20
2018-03-03T03:53:59.643Z,17.20
2018-03-03T03:54:59.702Z,17.20
2018-03-03T03:55:59.724Z,16.30
2018-03-03T03:56:59.733Z,16.30
2018-03-03T03:57:59.736Z,16.30
2018-03-03T03:58:59.661Z,16.30
2018-03-03T03:59:59.743Z,16.30
2018-03-03T04:00:59.666Z,16.30
2018-03-03T04:01:59.735Z,16.30
2018-03-03T04:02:59.736Z,16.30
2018-03-03T04:03:59.746Z,16.30
2018-03-03T04:04:59.780Z,16.30
2018-03-03T04:05:59.730Z,17.10
2018-03-03T04:06:59.743Z,17.10
2018-03-03T04:07:59.739Z,17.10
2018-03-03T04:08:59.716Z,17.10
2018-03-03T04:09:59.660Z,17.10
2018-03-03T04:10:59.658Z,17.10
2018-03-03T04:11:59.765Z,17.10
2018-03-03T04:12:59.709Z,17.10
2018-03-03T04:13:59.717Z,17.10
2018-03-03T04:14:59.737Z,17.10
2018-03-03T04:15:59.741Z,17.70
2018-03-03T04:16:59.777Z,17.70
2018-03-03T04:17:59.721Z,17.70
2018-03-03T04:18:59.743Z,17.70
2018-03-03T04:19:59.663Z,17.70
2018-03-03T04:20:59.743Z,17.70
2018-03-03T04:21:59.744Z,17.70
2018-03-03T04:22:59.780Z,17.70
2018-03-03T04:23:59.663Z,17.70
2018-03-03T04:24:59.667Z,17.70
2018-03-03T04:25:59.805Z,16.80
2018-03-03T04:26:59.663Z,16.80
2018-03-03T04:27:59.777Z,16.80
2018-03-03T04:28:59.746Z,16.80
2018-03-03T04:29:59.685Z,16.80
2018-03-03T04:30:59.716Z,16.80
2018-03-03T04:31:59.744Z,16.80
2018-03-03T04:32:59.749Z,16.80
2018-03-03T04:33:59.686Z,16.80
2018-03-03T04:34:59.761Z,16.80
2018-03-03T04:35:59.685Z,17.70
2018-03-03T04:36:59.685Z,17.70
2018-03-03T04:37:59.686Z,17.70
2018-03-03T04:38:59.687Z,17.70
2018-03-03T04:39:59.762Z,17.70
2018-03-03T04:40:59.684Z,17.70
2018-03-03T04:41:59.758Z,17.70
2018-03-03T04:42:59.759Z,17.70
2018-03-03T04:43:59.759Z,17.70
2018-03-03T04:44:59.747Z,17.70
2018-03-03T04:45:59.775Z,16.70
2018-03-03T04:46:59.701Z,16.70
2018-03-03T04:47:59.792Z,16.70
2018-03-03T04:48:59.681Z,16.70
2018-03-03T04:49:59.760Z,16.70
2018-03-03T04:50:59.799Z,16.70
2018-03-03T04:51:59.758Z,16.70
2018-03-03T04:52:59.688Z,16.70
2018-03-03T04:53:59.732Z,16.70
2018-03-03T04:54:59.800Z,16.70
2018-03-03T04:55:59.766Z,19.50
2018-03-03T04:56:59.695Z,19.50
2018-03-03T04:57:59.711Z,19.50
2018-03-03T04:58:59.771Z,19.50
2018-03-03T04:59:59.654Z,19.50
2018-03-03T05:00:59.774Z,19.50
2018-03-03T05:01:59.700Z,19.50
2018-03-03T05:02:59.701Z,19.50
2018-03-03T05:03:59.775Z,19.50
2018-03-03T05:04:59.664Z,19.50
2018-03-03T05:05:59.768Z,14.50
2018-03-03T05:06:59.739Z,14.50
2018-03-03T05:07:59.676Z,14.50
2018-03-03T05:08:59.753Z,14.50
2018-03-03T05:09:59.792Z,14.50
2018-03-03T05:10:59.843Z,14.50
2018-03-03T05:11:59.690Z,14.50
2018-03-03T05:12:59.745Z,14.50
2018-03-03T05:13:59.778Z,14.50
2018-03-03T05:14:59.776Z,14.50
2018-03-03T05:15:59.784Z,17.20
2018-03-03T05:16:59.707Z,17.20
2018-03-03T05:17:59.782Z,17.20
2018-03-03T05:18:59.786Z,17.20
2018-03-03T05:19:59.709Z,17.20
2018-03-03T05:20:59.711Z,17.20
2018-03-03T05:21:59.711Z,17.20
2018-03-03T05:22:59.712Z,17.20
2018-03-03T05:23:59.782Z,17.20
2018-03-03T05:24:59.785Z,17.20
2018-03-03T05:25:59.790Z,16.10
2018-03-03T05:26:59.684Z,16.10
2018-03-03T05:27:59.780Z,16.10
2018-03-03T05:28:59.816Z,16.10
2018-03-03T05:29:59.842Z,16.10
2018-03-03T05:30:59.804Z,16.10
2018-03-03T05:31:59.815Z,16.10
2018-03-03T05:32:59.753Z,16.10
2018-03-03T05:33:59.774Z,16.10
2018-03-03T05:34:59.788Z,16.10
2018-03-03T05:35:59.792Z,14.50
2018-03-03T05:36:59.793Z,14.50
2018-03-03T05:37:59.723Z,14.50
2018-03-03T05:38:59.778Z,14.50
2018-03-03T05:39:59.794Z,14.50
2018-03-03T05:40:59.763Z,14.50
2018-03-03T05:41:59.799Z,14.50
2018-03-03T05:42:59.722Z,14.50
2018-03-03T05:43:59.767Z,14.50
2018-03-03T05:44:59.728Z,14.50
2018-03-03T05:45:59.736Z,15.20
2018-03-03T05:46:59.665Z,15.20
2018-03-03T05:47:59.774Z,15.20
2018-03-03T05:48:59.781Z,15.20
2018-03-03T05:49:59.669Z,15.20
2018-03-03T05:50:59.697Z,15.20
2018-03-03T05:51:59.689Z,15.20
2018-03-03T05:52:59.759Z,15.20
2018-03-03T05:53:59.790Z,15.20
2018-03-03T05:54:59.698Z,15.20
2018-03-03T05:55:59.732Z,15.00
2018-03-03T05:56:59.837Z,15.00
2018-03-03T05:57:59.807Z,15.00
2018-03-03T05:58:59.731Z,15.00
2018-03-03T05:59:59.803Z,15.00
2018-03-03T06:00:59.806Z,15.00
2018-03-03T06:01:59.809Z,15.00
2018-03-03T06:02:59.809Z,15.00
2018-03-03T06:03:59.709Z,15.00
2018-03-03T06:04:59.811Z,15.00
2018-03-03T06:05:59.843Z,17.70
2018-03-03T06:06:59.815Z,17.70
2018-03-03T06:07:59.835Z,17.70
2018-03-03T06:08:59.778Z,17.70
2018-03-03T06:09:59.792Z,17.70
2018-03-03T06:10:59.807Z,17.70
2018-03-03T06:11:59.835Z,17.70
2018-03-03T06:12:59.785Z,17.70
2018-03-03T06:13:59.735Z,17.70
2018-03-03T06:14:59.810Z,17.70
2018-03-03T06:15:59.792Z,16.80
2018-03-03T06:16:59.817Z,16.80
2018-03-03T06:17:59.734Z,16.80
2018-03-03T06:18:59.850Z,16.80
2018-03-03T06:19:59.782Z,16.80
2018-03-03T06:20:59.813Z,16.80
2018-03-03T06:22:00.035Z,16.80
2018-03-03T06:22:59.782Z,16.80
2018-03-03T06:23:59.776Z,16.80
2018-03-03T06:24:59.817Z,16.80
2018-03-03T06:25:59.775Z,14.60
2018-03-03T06:26:59.823Z,14.60
2018-03-03T06:27:59.856Z,14.60
2018-03-03T06:28:59.795Z,14.60
2018-03-03T06:29:59.797Z,14.60
2018-03-03T06:30:59.821Z,14.60
2018-03-03T06:31:59.827Z,14.60
2018-03-03T06:32:59.849Z,14.60
2018-03-03T06:33:59.793Z,14.60
2018-03-03T06:34:59.856Z,14.60
2018-03-03T06:35:59.828Z,16.90
2018-03-03T06:36:59.857Z,16.90
2018-03-03T06:37:59.822Z,16.90
2018-03-03T06:38:59.851Z,16.90
2018-03-03T06:39:59.852Z,16.90
2018-03-03T06:40:59.827Z,16.90
2018-03-03T06:41:59.808Z,16.90
2018-03-03T06:42:59.796Z,16.90
2018-03-03T06:43:59.869Z,16.90
2018-03-03T06:44:59.810Z,16.90
2018-03-03T06:45:59.732Z,16.90
2018-03-03T06:46:59.824Z,14.90
2018-03-03T06:47:59.865Z,14.90
2018-03-03T06:48:59.800Z,14.90
2018-03-03T06:49:59.869Z,14.90
2018-03-03T06:50:59.835Z,14.90
2018-03-03T06:51:59.867Z,14.90
2018-03-03T06:52:59.811Z,14.90
2018-03-03T06:53:59.860Z,14.90
2018-03-03T06:54:59.865Z,14.90
2018-03-03T06:55:59.754Z,14.90
2018-03-03T06:56:59.858Z,15.20
2018-03-03T06:57:59.832Z,15.20
2018-03-03T06:58:59.796Z,15.20
2018-03-03T06:59:59.857Z,15.20
2018-03-03T07:00:59.756Z,15.20
2018-03-03T07:01:59.869Z,15.20
2018-03-03T07:02:59.760Z,15.20
2018-03-03T07:03:59.803Z,15.20
2018-03-03T07:04:59.864Z,15.20
2018-03-03T07:05:59.878Z,15.20
2018-03-03T07:06:59.865Z,16.90
2018-03-03T07:07:59.759Z,16.90
2018-03-03T07:08:59.879Z,16.90
2018-03-03T07:09:59.846Z,16.90
2018-03-03T07:10:59.864Z,16.90
2018-03-03T07:11:59.806Z,16.90
2018-03-03T07:12:59.820Z,16.90
2018-03-03T07:13:59.842Z,16.90
2018-03-03T07:14:59.820Z,16.90
2018-03-03T07:15:59.870Z,16.90
2018-03-03T07:16:59.794Z,17.60
2018-03-03T07:17:59.704Z,17.60
2018-03-03T07:18:59.703Z,17.60
2018-03-03T07:19:59.798Z,17.60
2018-03-03T07:20:59.703Z,17.60
2018-03-03T07:21:59.801Z,17.60
2018-03-03T07:22:59.799Z,17.60
2018-03-03T07:23:59.801Z,17.60
2018-03-03T07:24:59.709Z,17.60
2018-03-03T07:25:59.807Z,17.60
2018-03-03T07:26:59.832Z,15.50
2018-03-03T07:27:59.820Z,15.50
2018-03-03T07:28:59.876Z,15.50
2018-03-03T07:29:59.893Z,15.50
2018-03-03T07:30:59.860Z,15.50
2018-03-03T07:31:59.879Z,15.50
2018-03-03T07:32:59.875Z,15.50
2018-03-03T07:33:59.889Z,15.50
2018-03-03T07:34:59.895Z,15.50
2018-03-03T07:35:59.792Z,15.50
2018-03-03T07:36:59.843Z,15.00
2018-03-03T07:37:59.731Z,15.00
2018-03-03T07:38:59.727Z,15.00
2018-03-03T07:39:59.790Z,15.00
2018-03-03T07:40:59.767Z,15.00
2018-03-03T07:41:59.780Z,15.00
2018-03-03T07:42:59.818Z,15.00
2018-03-03T07:43:59.781Z,15.00
2018-03-03T07:44:59.822Z,15.00
2018-03-03T07:45:59.861Z,15.00
2018-03-03T07:46:59.865Z,17.20
2018-03-03T07:47:59.797Z,17.20
2018-03-03T07:48:59.815Z,17.20
2018-03-03T07:49:59.869Z,17.20
2018-03-03T07:50:59.869Z,17.20
2018-03-03T07:51:59.802Z,17.20
2018-03-03T07:52:59.872Z,17.20
2018-03-03T07:53:59.875Z,17.20
2018-03-03T07:54:59.887Z,17.20
2018-03-03T07:55:59.800Z,17.20
2018-03-03T07:56:59.893Z,13.90
2018-03-03T07:57:59.868Z,13.90
2018-03-03T07:58:59.866Z,13.90
2018-03-03T07:59:59.859Z,13.90
2018-03-03T08:00:59.908Z,13.90
2018-03-03T08:01:59.813Z,13.90
2018-03-03T08:02:59.811Z,13.90
2018-03-03T08:03:59.931Z,13.90
2018-03-03T08:04:59.874Z,13.90
2018-03-03T08:05:59.872Z,13.90
2018-03-03T08:06:59.850Z,16.60
2018-03-03T08:07:59.932Z,16.60
2018-03-03T08:08:59.843Z,16.60
2018-03-03T08:09:59.917Z,16.60
2018-03-03T08:10:59.877Z,16.60
2018-03-03T08:11:59.847Z,16.60
2018-03-03T08:12:59.856Z,16.60
2018-03-03T08:13:59.820Z,16.60
2018-03-03T08:14:59.887Z,16.60
2018-03-03T08:15:59.880Z,16.60
2018-03-03T08:16:59.876Z,17.00
2018-03-03T08:17:59.804Z,17.00
2018-03-03T08:18:59.789Z,17.00
2018-03-03T08:19:59.803Z,17.00
2018-03-03T08:20:59.876Z,17.00
2018-03-03T08:21:59.754Z,17.00
2018-03-03T08:22:59.874Z,17.00
2018-03-03T08:23:59.792Z,17.00
2018-03-03T08:24:59.812Z,17.00
2018-03-03T08:25:59.879Z,17.00
2018-03-03T08:26:59.824Z,17.30
2018-03-03T08:27:59.891Z,17.30
2018-03-03T08:28:59.820Z,17.30
2018-03-03T08:29:59.890Z,17.30
2018-03-03T08:30:59.894Z,17.30
2018-03-03T08:31:59.827Z,17.30
2018-03-03T08:32:59.893Z,17.30
2018-03-03T08:33:59.825Z,17.30
2018-03-03T08:34:59.828Z,17.30
2018-03-03T08:35:59.897Z,17.30
2018-03-03T08:36:59.854Z,16.20
2018-03-03T08:37:59.840Z,16.20
2018-03-03T08:38:59.894Z,16.20
2018-03-03T08:39:59.880Z,16.20
2018-03-03T08:40:59.891Z,16.20
2018-03-03T08:41:59.876Z,16.20
2018-03-03T08:42:59.926Z,16.20
2018-03-03T08:43:59.898Z,16.20
2018-03-03T08:44:59.871Z,16.20
2018-03-03T08:45:59.969Z,16.20
2018-03-03T08:46:59.904Z,15.20
2018-03-03T08:47:59.832Z,15.20
2018-03-03T08:48:59.905Z,15.20
2018-03-03T08:49:59.831Z,15.20
2018-03-03T08:50:59.906Z,15.20
2018-03-03T08:51:59.837Z,15.20
2018-03-03T08:52:59.908Z,15.20
2018-03-03T08:53:59.838Z,15.20
2018-03-03T08:54:59.910Z,15.20
2018-03-03T08:55:59.837Z,15.20
2018-03-03T08:56:59.880Z,17.40
2018-03-03T08:57:59.907Z,17.40
2018-03-03T08:58:59.846Z,17.40
2018-03-03T08:59:59.954Z,17.40
2018-03-03T09:00:59.878Z,17.40
2018-03-03T09:01:59.827Z,17.40
2018-03-03T09:02:59.913Z,17.40
2018-03-03T09:03:59.872Z,17.40
2018-03-03T09:04:59.941Z,17.40
2018-03-03T09:05:59.915Z,17.40
2018-03-03T09:06:59.914Z,19.30
2018-03-03T09:07:59.918Z,19.30
2018-03-03T09:08:59.875Z,19.30
2018-03-03T09:09:59.849Z,19.30
2018-03-03T09:10:59.869Z,19.30
2018-03-03T09:11:59.953Z,19.30
2018-03-03T09:12:59.947Z,19.30
2018-03-03T09:13:59.915Z,19.30
2018-03-03T09:14:59.832Z,19.30
2018-03-03T09:15:59.833Z,19.30
2018-03-03T09:16:59.851Z,17.50
2018-03-03T09:17:59.925Z,17.50
2018-03-03T09:18:59.850Z,17.50
2018-03-03T09:19:59.929Z,17.50
2018-03-03T09:20:59.921Z,17.50
2018-03-03T09:21:59.855Z,17.50
2018-03-03T09:22:59.857Z,17.50
2018-03-03T09:23:59.922Z,17.50
2018-03-03T09:24:59.922Z,17.50
2018-03-03T09:25:59.854Z,17.50
2018-03-03T09:26:59.855Z,18.30
2018-03-03T09:27:59.863Z,18.30
2018-03-03T09:28:59.863Z,18.30
2018-03-03T09:29:59.859Z,18.30
2018-03-03T09:30:59.861Z,18.30
2018-03-03T09:31:59.933Z,18.30
2018-03-03T09:32:59.860Z,18.30
2018-03-03T09:33:59.933Z,18.30
2018-03-03T09:34:59.863Z,18.30
2018-03-03T09:35:59.932Z,18.30
2018-03-03T09:36:59.890Z,20.70
2018-03-03T09:37:59.959Z,20.70
2018-03-03T09:38:59.838Z,20.70
2018-03-03T09:39:59.962Z,20.70
2018-03-03T09:40:59.933Z,20.70
2018-03-03T09:41:59.891Z,20.70
2018-03-03T09:42:59.937Z,20.70
2018-03-03T09:43:59.968Z,20.70
2018-03-03T09:44:59.939Z,20.70
2018-03-03T09:45:59.854Z,20.70
2018-03-03T09:46:59.910Z,18.30
2018-03-03T09:47:59.960Z,18.30
2018-03-03T09:48:59.873Z,18.30
2018-03-03T09:49:59.859Z,18.30
2018-03-03T09:50:59.898Z,18.30
2018-03-03T09:51:59.978Z,18.30
2018-03-03T09:52:59.923Z,18.30
2018-03-03T09:53:59.939Z,18.30
2018-03-03T09:54:59.917Z,18.30
2018-03-03T09:55:59.967Z,18.30
2018-03-03T09:56:59.902Z,19.40
2018-03-03T09:57:59.873Z,19.40
2018-03-03T09:58:59.972Z,19.40
2018-03-03T09:59:59.989Z,19.40
2018-03-03T10:00:59.876Z,19.40
2018-03-03T10:02:06.291Z,19.40
2018-03-03T10:02:59.948Z,19.40
2018-03-03T10:03:59.880Z,19.40
2018-03-03T10:04:59.949Z,19.40
2018-03-03T10:05:59.951Z,19.40
2018-03-03T10:06:59.882Z,20.30
2018-03-03T10:07:59.880Z,20.30
2018-03-03T10:08:59.840Z,20.30
2018-03-03T10:09:59.887Z,20.30
2018-03-03T10:10:59.882Z,20.30
2018-03-03T10:11:59.968Z,20.30
2018-03-03T10:12:59.974Z,20.30
2018-03-03T10:13:59.889Z,20.30
2018-03-03T10:14:59.940Z,20.30
2018-03-03T10:15:59.990Z,20.30
2018-03-03T10:16:59.887Z,20.90
2018-03-03T10:17:59.956Z,20.90
2018-03-03T10:18:59.887Z,20.90
2018-03-03T10:19:59.960Z,20.90
2018-03-03T10:20:59.889Z,20.90
2018-03-03T10:21:59.948Z,20.90
2018-03-03T10:22:59.893Z,20.90
2018-03-03T10:23:59.964Z,20.90
2018-03-03T10:24:59.960Z,20.90
2018-03-03T10:25:59.894Z,20.90
2018-03-03T10:26:59.995Z,22.60
2018-03-03T10:27:59.880Z,22.60
2018-03-03T10:28:59.868Z,22.60
2018-03-03T10:29:59.862Z,22.60
2018-03-03T10:30:59.943Z,22.60
2018-03-03T10:31:59.963Z,22.60
2018-03-03T10:32:59.947Z,22.60
2018-03-03T10:33:59.933Z,22.60
2018-03-03T10:34:59.929Z,22.60
2018-03-03T10:36:00.003Z,22.60
2018-03-03T10:37:00.027Z,19.90
2018-03-03T10:37:59.966Z,19.90
2018-03-03T10:38:59.988Z,19.90
2018-03-03T10:39:59.870Z,19.90
2018-03-03T10:40:59.904Z,19.90
2018-03-03T10:41:59.967Z,19.90
2018-03-03T10:42:59.968Z,19.90
2018-03-03T10:43:59.952Z,19.90
2018-03-03T10:44:59.948Z,19.90
2018-03-03T10:45:59.975Z,19.90
2018-03-03T10:46:59.975Z,18.60
2018-03-03T10:47:59.906Z,18.60
2018-03-03T10:48:59.921Z,18.60
2018-03-03T10:49:59.981Z,18.60
2018-03-03T10:50:59.903Z,18.60
2018-03-03T10:51:59.982Z,18.60
2018-03-03T10:53:59.981Z,18.60
2018-03-03T10:54:59.910Z,18.60
2018-03-03T10:55:59.980Z,18.60
2018-03-03T10:56:59.884Z,20.70
2018-03-03T10:57:59.954Z,20.70
2018-03-03T10:59:00.001Z,20.70
2018-03-03T10:59:59.982Z,20.70
2018-03-03T11:01:00.024Z,20.70
2018-03-03T11:01:59.899Z,20.70
2018-03-03T11:02:59.946Z,20.70
2018-03-03T11:03:59.999Z,20.70
2018-03-03T11:04:59.965Z,20.70
2018-03-03T11:05:59.957Z,20.70
2018-03-03T11:06:59.885Z,21.30
2018-03-03T11:07:59.956Z,21.30
2018-03-03T11:09:00.046Z,21.30
2018-03-03T11:09:59.908Z,21.30
2018-03-03T11:10:59.996Z,21.30
2018-03-03T11:11:59.989Z,21.30
2018-03-03T11:13:00.021Z,21.30
2018-03-03T11:13:59.987Z,21.30
2018-03-03T11:15:00.019Z,21.30
2018-03-03T11:16:00.025Z,21.30
2018-03-03T11:16:59.962Z,20.90
2018-03-03T11:17:59.988Z,20.90
2018-03-03T11:18:59.961Z,20.90
2018-03-03T11:20:00.043Z,20.90
2018-03-03T11:21:00.023Z,20.90
2018-03-03T11:21:59.959Z,20.90
2018-03-03T11:22:59.934Z,20.90
2018-03-03T11:24:00.035Z,20.90
2018-03-03T11:25:00.022Z,20.90
2018-03-03T11:26:00.039Z,20.90
2018-03-03T11:26:59.927Z,23.70
2018-03-03T11:28:00.000Z,23.70
2018-03-03T11:28:59.929Z,23.70
2018-03-03T11:29:59.999Z,23.70
2018-03-03T11:30:59.935Z,23.70
2018-03-03T11:32:00.002Z,23.70
2018-03-03T11:32:59.932Z,23.70
2018-03-03T11:33:59.934Z,23.70
2018-03-03T11:35:00.028Z,23.70
2018-03-03T11:35:59.945Z,23.70
2018-03-03T11:37:00.005Z,22.80
2018-03-03T11:37:59.964Z,22.80
2018-03-03T11:39:00.024Z,22.80
2018-03-03T11:39:59.986Z,22.80
2018-03-03T11:41:00.009Z,22.80
2018-03-03T11:41:59.985Z,22.80
2018-03-03T11:42:59.944Z,22.80
2018-03-03T11:44:00.044Z,22.80
2018-03-03T11:45:00.040Z,22.80
2018-03-03T11:46:00.033Z,22.80
2018-03-03T11:46:59.878Z,19.00
2018-03-03T11:47:59.885Z,19.00
2018-03-03T11:48:59.880Z,19.00
2018-03-03T11:49:59.969Z,19.00
2018-03-03T11:51:00.007Z,19.00
2018-03-03T11:51:59.881Z,19.00
2018-03-03T11:53:00.025Z,19.00
2018-03-03T11:53:59.899Z,19.00
2018-03-03T11:54:59.935Z,19.00
2018-03-03T11:55:59.886Z,19.00
2018-03-03T11:57:00.008Z,27.99
2018-03-03T11:58:00.038Z,27.99
2018-03-03T11:59:00.033Z,27.99
2018-03-03T11:59:59.976Z,27.99
2018-03-03T12:00:59.933Z,27.99
2018-03-03T12:02:00.021Z,27.99
2018-03-03T12:02:59.984Z,27.99
2018-03-03T12:04:00.028Z,27.99
2018-03-03T12:05:00.021Z,27.99
2018-03-03T12:06:00.078Z,27.99
2018-03-03T12:07:00.052Z,19.50
2018-03-03T12:08:00.020Z,19.50
2018-03-03T12:09:00.053Z,19.50
2018-03-03T12:10:00.042Z,19.50
2018-03-03T12:11:00.022Z,19.50
2018-03-03T12:11:59.998Z,19.50
2018-03-03T12:13:00.043Z,19.50
2018-03-03T12:14:00.024Z,19.50
2018-03-03T12:15:00.050Z,19.50
2018-03-03T12:15:59.949Z,19.50
2018-03-03T12:17:00.063Z,24.60
2018-03-03T12:17:59.962Z,24.60
2018-03-03T12:19:00.001Z,24.60
2018-03-03T12:20:00.039Z,24.60
2018-03-03T12:21:00.000Z,24.60
2018-03-03T12:21:59.952Z,24.60
2018-03-03T12:22:59.968Z,24.60
2018-03-03T12:24:00.060Z,24.60
2018-03-03T12:25:00.052Z,24.60
2018-03-03T12:25:59.969Z,24.60
2018-03-03T12:27:00.068Z,22.50
2018-03-03T12:28:00.002Z,22.50
2018-03-03T12:28:59.957Z,22.50
2018-03-03T12:30:00.044Z,22.50
2018-03-03T12:31:00.018Z,22.50
2018-03-03T12:32:00.007Z,22.50
2018-03-03T12:33:00.000Z,22.50
2018-03-03T12:33:59.999Z,22.50
2018-03-03T12:35:00.036Z,22.50
2018-03-03T12:35:59.996Z,22.50
2018-03-03T12:37:00.037Z,23.80
2018-03-03T12:37:59.964Z,23.80
2018-03-03T12:39:00.051Z,23.80
2018-03-03T12:40:00.044Z,23.80
2018-03-03T12:41:00.038Z,23.80
2018-03-03T12:41:59.952Z,23.80
2018-03-03T12:42:59.950Z,23.80
2018-03-03T12:44:00.041Z,23.80
2018-03-03T12:45:00.088Z,23.80
2018-03-03T12:45:59.980Z,23.80
2018-03-03T12:46:59.999Z,18.50
2018-03-03T12:48:00.037Z,18.50
2018-03-03T12:49:00.006Z,18.50
2018-03-03T12:49:59.966Z,18.50
2018-03-03T12:51:00.037Z,18.50
2018-03-03T12:51:59.917Z,18.50
2018-03-03T12:52:59.917Z,18.50
2018-03-03T12:54:00.012Z,18.50